Time;durP1;ratioP1;P1;durP2;ratioP2;P2;SDS_P1;SDS_P2;PMS_P1;PMS_P2;Temp;Humidity;BMP_temperature;BMP_pressure;BME280_temperature;BME280_humidity;BME280_pressure;Samples;Min_cycle;Max_cycle;Signal;HPM_P1;HPM_P2
2023/02/20 00:00:53;;;;;;;7.25;4.00;;;;;;;14.21;46.89;102455.25;4983919;28;20456;-60
2023/02/20 00:03:19;;;;;;;10.52;4.97;;;;;;;14.13;47.74;102444.16;5016559;28;20036;-61
2023/02/20 00:05:44;;;;;;;7.45;4.72;;;;;;;14.11;46.86;102446.13;5017066;28;20033;-61
2023/02/20 00:08:10;;;;;;;7.22;4.13;;;;;;;14.07;46.92;102450.00;5032236;28;20048;-61
2023/02/20 00:10:35;;;;;;;10.77;4.97;;;;;;;14.06;47.89;102452.81;5034560;28;20163;-61
2023/02/20 00:13:00;;;;;;;9.30;4.47;;;;;;;14.04;46.83;102447.56;5016338;28;20032;-61
2023/02/20 00:15:26;;;;;;;14.65;5.25;;;;;;;14.01;47.06;102429.75;5016309;28;20505;-62
2023/02/20 00:17:51;;;;;;;9.68;4.82;;;;;;;14.02;48.06;102430.63;4999910;28;20075;-60
2023/02/20 00:20:22;;;;;;;9.95;5.28;;;;;;;14.00;46.83;102432.56;5016766;28;20151;-61
2023/02/20 00:22:48;;;;;;;13.07;6.22;;;;;;;13.97;47.69;102413.94;4999970;28;20036;-61
2023/02/20 00:25:19;;;;;;;11.30;5.28;;;;;;;13.97;48.25;102416.63;5033785;28;20030;-61
2023/02/20 00:27:44;;;;;;;13.00;5.45;;;;;;;13.95;47.97;102418.59;5016516;28;20036;-60
2023/02/20 00:30:21;;;;;;;12.65;5.47;;;;;;;13.93;47.73;102409.75;4999814;28;20104;-60
2023/02/20 00:32:48;;;;;;;13.20;5.35;;;;;;;13.95;47.36;102415.88;5016418;28;20033;-60
2023/02/20 00:35:16;;;;;;;12.32;5.85;;;;;;;13.96;46.91;102418.47;5033707;28;20061;-60
2023/02/20 00:37:41;;;;;;;11.32;5.78;;;;;;;13.97;47.61;102408.53;4999601;28;20041;-60
2023/02/20 00:40:07;;;;;;;15.85;6.75;;;;;;;13.96;47.55;102406.81;5033638;28;20029;-60
2023/02/20 00:42:33;;;;;;;14.93;6.32;;;;;;;13.98;48.02;102413.84;5016107;28;20113;-60
2023/02/20 00:44:58;;;;;;;15.68;6.65;;;;;;;13.98;48.05;102408.44;5032211;28;20565;-61
2023/02/20 00:47:24;;;;;;;17.40;7.28;;;;;;;14.00;47.98;102389.47;5033652;28;20089;-61
2023/02/20 00:49:49;;;;;;;16.40;6.75;;;;;;;14.00;47.11;102386.78;5032034;28;20044;-61
2023/02/20 00:52:15;;;;;;;17.38;7.43;;;;;;;14.01;47.05;102375.03;5032163;28;20029;-60
2023/02/20 00:54:40;;;;;;;16.73;6.13;;;;;;;13.99;47.28;102379.66;4999199;28;20112;-61
2023/02/20 00:57:05;;;;;;;17.77;6.43;;;;;;;13.98;48.11;102361.78;4999323;28;20390;-60
2023/02/20 00:59:31;;;;;;;16.00;7.00;;;;;;;13.95;47.88;102372.78;5016020;28;20433;-60
2023/02/20 01:01:56;;;;;;;17.80;7.07;;;;;;;13.92;47.32;102375.69;5015288;28;20065;-61
2023/02/20 01:04:22;;;;;;;13.50;6.15;;;;;;;13.90;47.32;102365.03;5033262;28;20559;-61
2023/02/20 01:06:47;;;;;;;19.80;7.32;;;;;;;13.92;48.34;102359.53;5016846;28;20405;-60
2023/02/20 01:09:13;;;;;;;14.32;6.72;;;;;;;13.92;47.78;102364.94;5036134;28;20413;-60
2023/02/20 01:11:41;;;;;;;19.02;7.15;;;;;;;13.90;48.13;102358.81;5018514;28;20083;-61
2023/02/20 01:14:07;;;;;;;16.20;6.63;;;;;;;13.90;48.31;102364.19;5036644;28;20037;-60
2023/02/20 01:16:32;;;;;;;14.80;7.15;;;;;;;13.89;48.44;102362.47;5001376;28;20498;-61
2023/02/20 01:18:57;;;;;;;12.88;6.05;;;;;;;13.90;48.07;102361.50;5033309;28;20490;-61
2023/02/20 01:21:23;;;;;;;18.23;6.05;;;;;;;13.92;47.60;102370.31;4999506;28;20120;-60
2023/02/20 01:23:48;;;;;;;16.15;6.75;;;;;;;13.93;48.01;102355.88;5032978;28;20040;-61
2023/02/20 01:26:13;;;;;;;16.30;7.05;;;;;;;13.93;47.00;102374.75;5015832;28;20132;-60
2023/02/20 01:28:43;;;;;;;12.25;5.57;;;;;;;13.93;48.29;102372.88;5032812;28;20029;-60
2023/02/20 01:31:08;;;;;;;15.40;6.82;;;;;;;13.96;48.68;102355.63;4998639;28;20029;-61
2023/02/20 01:33:33;;;;;;;14.23;6.35;;;;;;;13.96;48.18;102355.63;5015354;28;20481;-60
2023/02/20 01:35:59;;;;;;;22.00;6.70;;;;;;;13.97;48.37;102358.22;4998589;28;20116;-60
2023/02/20 01:38:24;;;;;;;22.17;7.25;;;;;;;13.98;48.54;102351.00;5015615;28;20025;-60
2023/02/20 01:40:49;;;;;;;12.98;6.15;;;;;;;13.97;46.88;102351.97;5015113;28;20114;-60
2023/02/20 01:43:16;;;;;;;15.27;5.57;;;;;;;13.96;47.48;102350.22;5015121;28;20034;-60
2023/02/20 01:45:41;;;;;;;15.68;6.00;;;;;;;13.95;47.42;102348.53;4998671;28;20422;-60
2023/02/20 01:48:19;;;;;;;16.90;6.22;;;;;;;13.94;47.17;102346.81;4998471;28;20119;-60
2023/02/20 01:50:45;;;;;;;18.00;6.22;;;;;;;13.93;47.65;102345.94;4999047;28;20448;-60
2023/02/20 01:53:13;;;;;;;13.73;5.43;;;;;;;13.95;48.37;102353.94;5014801;28;20033;-60
2023/02/20 01:55:49;;;;;;;14.45;6.20;;;;;;;13.94;48.51;102355.75;5014780;28;20029;-61
2023/02/20 01:58:22;;;;;;;11.95;5.55;;;;;;;13.94;48.56;102349.50;4998561;28;20489;-60
2023/02/20 02:00:48;;;;;;;16.88;5.32;;;;;;;13.93;47.13;102350.50;5032451;28;20037;-60
2023/02/20 02:03:17;;;;;;;8.82;4.30;;;;;;;13.94;48.12;102346.81;5014881;28;20474;-60
2023/02/20 02:05:45;;;;;;;13.13;4.45;;;;;;;13.94;48.41;102346.81;5015352;28;20052;-60
2023/02/20 02:08:13;;;;;;;10.27;3.97;;;;;;;13.94;48.25;102341.41;5014954;28;20108;-60
2023/02/20 02:11:09;;;;;;;6.95;4.47;;;;;;;13.96;46.97;102347.53;5032492;28;20026;-60
2023/02/20 02:13:36;;;;;;;9.80;3.92;;;;;;;13.94;47.23;102344.97;5032525;28;20489;-61
2023/02/20 02:16:27;;;;;;;10.98;4.40;;;;;;;13.94;47.17;102338.72;4998618;28;20034;-60
2023/02/20 02:19:01;;;;;;;15.52;4.95;;;;;;;13.92;47.26;102336.16;5014885;28;20510;-60
2023/02/20 02:21:40;;;;;;;13.07;4.25;;;;;;;13.91;46.93;102334.44;5014818;28;20044;-60
2023/02/20 02:24:35;;;;;;;11.48;3.53;;;;;;;13.91;47.79;102330.88;4998346;28;20032;-61
2023/02/20 02:27:19;;;;;;;10.48;4.22;;;;;;;13.90;47.37;102321.91;5014447;28;20520;-61
2023/02/20 02:30:16;;;;;;;11.75;4.22;;;;;;;13.90;48.06;102326.47;5015161;28;20048;-62
2023/02/20 02:33:00;;;;;;;10.02;4.00;;;;;;;13.88;47.88;102323.00;4992110;28;20116;-60
2023/02/20 02:35:49;;;;;;;9.32;3.83;;;;;;;13.85;47.12;102320.53;5036135;28;20128;-61
2023/02/20 02:38:24;;;;;;;8.55;3.28;;;;;;;13.84;47.93;102316.16;5018587;28;20033;-60
2023/02/20 02:41:04;;;;;;;8.88;3.63;;;;;;;13.84;47.00;102314.31;5018386;28;20030;-61
2023/02/20 02:43:54;;;;;;;10.30;3.00;;;;;;;13.82;47.51;102310.00;5018305;28;20065;-60
2023/02/20 02:46:26;;;;;;;10.65;3.17;;;;;;;13.80;48.11;102290.41;5035666;28;20044;-60
2023/02/20 02:49:20;;;;;;;9.98;3.00;;;;;;;13.79;48.10;102283.31;5018101;28;20112;-60
2023/02/20 02:51:46;;;;;;;9.25;3.45;;;;;;;13.76;48.24;102278.16;5034483;28;20109;-61
2023/02/20 02:54:27;;;;;;;4.47;2.08;;;;;;;13.75;46.95;102266.53;5034439;28;20116;-61
2023/02/20 02:57:33;;;;;;;6.85;2.85;;;;;;;13.72;47.46;102261.34;5035511;28;20049;-60
2023/02/20 03:00:18;;;;;;;10.50;2.85;;;;;;;13.71;48.25;102253.38;5017483;28;20082;-61
2023/02/20 03:03:08;;;;;;;18.27;3.10;;;;;;;13.68;47.71;102248.25;5003893;28;20077;-60
2023/02/20 03:06:02;;;;;;;3.40;2.03;;;;;;;13.63;47.99;102247.69;5017971;28;20050;-60
2023/02/20 03:08:42;;;;;;;5.07;2.38;;;;;;;13.58;47.79;102247.19;5017771;28;20071;-60
2023/02/20 03:11:19;;;;;;;8.73;2.40;;;;;;;13.57;48.71;102245.50;5001181;28;20034;-60
2023/02/20 03:16:50;;;;;;;8.00;1.92;;;;;;;13.55;48.33;102252.81;5035369;28;20053;-61
2023/02/20 03:19:25;;;;;;;5.13;2.53;;;;;;;13.52;47.80;102253.88;5017672;28;20493;-60
2023/02/20 03:21:52;;;;;;;10.10;2.50;;;;;;;13.49;47.22;102247.88;5016404;28;20041;-61
2023/02/20 03:24:19;;;;;;;2.92;1.67;;;;;;;13.46;47.65;102242.69;5035056;28;20029;-60
2023/02/20 03:26:45;;;;;;;5.72;1.92;;;;;;;13.41;47.08;102235.84;5017987;28;20027;-60
2023/02/20 03:29:15;;;;;;;9.30;2.67;;;;;;;13.40;47.64;102234.13;5017247;28;20056;-60
2023/02/20 03:45:41;;;;;;;8.55;2.28;;;;;;;13.35;48.64;102219.28;5020119;28;20041;-61
2023/02/20 03:48:10;;;;;;;3.72;1.70;;;;;;;13.36;48.91;102226.41;5000854;28;20037;-61
2023/02/20 03:50:35;;;;;;;5.10;2.05;;;;;;;13.37;48.64;102218.19;5017424;28;20482;-61
2023/02/20 03:53:02;;;;;;;7.18;2.13;;;;;;;13.39;47.77;102220.78;5017013;28;20040;-61
2023/02/20 03:55:27;;;;;;;4.10;1.73;;;;;;;13.39;49.06;102223.47;5001286;28;20121;-60
2023/02/20 03:57:56;;;;;;;4.68;1.80;;;;;;;13.39;47.67;102224.34;5000387;28;20108;-61
2023/02/20 04:00:27;;;;;;;4.55;1.85;;;;;;;13.37;47.99;102220.03;5016824;28;20030;-62
2023/02/20 04:02:56;;;;;;;5.22;2.33;;;;;;;13.36;48.02;102221.88;5018075;28;20053;-61
2023/02/20 04:05:24;;;;;;;4.85;2.20;;;;;;;13.36;47.71;102215.63;5037021;28;20048;-61
2023/02/20 04:08:05;;;;;;;9.40;2.35;;;;;;;13.36;48.55;102218.31;5036382;28;20037;-62
2023/02/20 04:10:33;;;;;;;7.10;2.03;;;;;;;13.33;48.01;102219.41;5036519;28;20056;-61
2023/02/20 04:12:59;;;;;;;8.65;2.25;;;;;;;13.35;48.66;102230.91;5036389;28;20515;-61
2023/02/20 04:15:26;;;;;;;6.13;2.35;;;;;;;13.35;48.08;102230.03;5035304;28;20037;-61
2023/02/20 04:18:05;;;;;;;7.25;1.95;;;;;;;13.33;47.91;102232.00;5019484;28;20040;-61
2023/02/20 04:20:31;;;;;;;8.23;2.47;;;;;;;13.32;48.70;102239.19;5054411;28;20025;-61
2023/02/20 04:23:01;;;;;;;10.30;2.38;;;;;;;13.30;47.75;102238.47;5003318;28;20505;-61
2023/02/20 04:25:43;;;;;;;11.07;2.58;;;;;;;13.29;49.14;102244.81;5019563;28;20037;-61
2023/02/20 04:28:08;;;;;;;6.32;2.53;;;;;;;13.28;48.48;102229.66;5036251;28;20041;-60
2023/02/20 04:30:34;;;;;;;3.03;2.33;;;;;;;13.31;49.18;102234.81;5019547;28;20033;-60
2023/02/20 04:32:59;;;;;;;7.88;3.10;;;;;;;13.32;48.40;102228.44;5019416;28;20120;-60
2023/02/20 04:35:24;;;;;;;11.20;3.38;;;;;;;13.32;47.84;102235.66;5054008;28;20106;-60
2023/02/20 04:37:50;;;;;;;9.15;3.15;;;;;;;13.35;48.18;102240.81;5035820;28;20043;-61
2023/02/20 04:40:20;;;;;;;8.07;2.60;;;;;;;13.32;48.87;102236.50;5035861;28;20060;-61
2023/02/20 04:42:45;;;;;;;4.00;2.42;;;;;;;13.28;48.44;102232.34;5018234;28;20528;-60
2023/02/20 04:45:11;;;;;;;11.52;2.83;;;;;;;13.26;48.28;102231.56;5036036;28;20045;-60
2023/02/20 04:47:36;;;;;;;8.27;2.40;;;;;;;13.26;47.91;102234.25;5021034;28;20041;-61
2023/02/20 04:50:02;;;;;;;6.20;2.67;;;;;;;13.26;49.01;102238.81;5035562;28;20116;-60
2023/02/20 04:52:28;;;;;;;10.35;3.15;;;;;;;13.27;49.44;102232.44;5019075;28;20029;-61
2023/02/20 04:54:53;;;;;;;9.45;3.00;;;;;;;13.24;49.40;102228.16;5035261;28;20392;-61
2023/02/20 04:57:19;;;;;;;5.78;3.25;;;;;;;13.26;48.29;102230.75;5035760;28;20104;-60
2023/02/20 04:59:44;;;;;;;7.43;2.80;;;;;;;13.24;48.36;102225.44;5053984;28;20032;-60
2023/02/20 05:02:10;;;;;;;8.18;3.40;;;;;;;13.26;48.62;102236.97;5035079;28;20045;-61
2023/02/20 05:04:35;;;;;;;5.70;3.33;;;;;;;13.26;48.51;102242.34;5035348;28;20037;-60
2023/02/20 05:07:01;;;;;;;10.52;3.00;;;;;;;13.28;48.78;102240.41;5035183;28;20045;-60
2023/02/20 05:09:26;;;;;;;9.80;3.33;;;;;;;13.27;48.89;102244.06;5035594;28;20087;-61
2023/02/20 05:11:52;;;;;;;7.20;3.50;;;;;;;13.28;49.53;102248.50;5053113;28;20025;-60
2023/02/20 05:14:18;;;;;;;10.77;3.33;;;;;;;13.27;48.01;102241.38;5019031;28;20021;-61
2023/02/20 05:16:44;;;;;;;12.88;3.75;;;;;;;13.28;47.98;102250.31;5034979;28;20501;-61
2023/02/20 05:19:10;;;;;;;10.50;3.53;;;;;;;13.26;49.30;102247.72;5035245;28;20060;-60
2023/02/20 05:24:20;;;;;;;7.82;3.05;;;;;;;13.18;48.98;102247.41;5037728;28;20031;-60
2023/02/20 05:26:46;;;;;;;7.53;3.83;;;;;;;13.22;48.37;102259.69;5019130;28;20033;-61
2023/02/20 05:29:12;;;;;;;9.15;3.58;;;;;;;13.22;48.56;102248.94;5002301;28;20032;-60
2023/02/20 05:31:41;;;;;;;7.55;3.63;;;;;;;13.22;48.45;102251.63;5035166;28;20108;-60
2023/02/20 05:34:07;;;;;;;8.75;3.03;;;;;;;13.26;49.09;102255.78;5036833;28;20033;-60
2023/02/20 05:36:32;;;;;;;7.28;3.38;;;;;;;13.27;49.58;102257.53;5037560;28;20112;-60
2023/02/20 05:38:58;;;;;;;8.45;3.30;;;;;;;13.26;48.88;102255.78;5036674;28;20492;-60
2023/02/20 05:41:23;;;;;;;9.13;3.03;;;;;;;13.27;49.61;102248.59;5053733;28;20461;-60
2023/02/20 05:43:49;;;;;;;9.35;4.43;;;;;;;13.27;49.31;102244.06;5035924;28;20029;-60
2023/02/20 05:46:15;;;;;;;12.52;3.80;;;;;;;13.31;48.86;102239.34;5034818;28;20033;-60
2023/02/20 05:48:40;;;;;;;6.50;3.22;;;;;;;13.30;49.22;102245.66;5035190;28;20417;-60
2023/02/20 05:51:06;;;;;;;11.82;3.80;;;;;;;13.30;48.53;102232.22;5018225;28;20040;-60
2023/02/20 05:53:32;;;;;;;12.27;4.50;;;;;;;13.28;48.92;102253.88;5035260;28;20036;-60
2023/02/20 05:55:57;;;;;;;5.85;3.47;;;;;;;13.23;49.82;102231.78;5018097;28;20575;-61
2023/02/20 05:58:23;;;;;;;7.63;3.53;;;;;;;13.26;48.76;102245.03;5018282;28;20029;-60
2023/02/20 06:00:49;;;;;;;8.40;3.42;;;;;;;13.28;49.51;102237.72;5034315;28;20033;-61
2023/02/20 06:03:14;;;;;;;9.40;3.65;;;;;;;13.27;49.86;102230.63;5018158;28;20405;-61
2023/02/20 06:05:40;;;;;;;4.65;3.05;;;;;;;13.28;48.16;102226.97;5054743;28;20033;-61
2023/02/20 06:08:05;;;;;;;6.70;3.55;;;;;;;13.25;48.41;102227.19;5039148;28;20037;-61
2023/02/20 06:10:31;;;;;;;5.38;3.38;;;;;;;13.24;48.68;102228.16;5056811;28;20429;-60
2023/02/20 06:12:56;;;;;;;6.97;3.17;;;;;;;13.25;49.46;102240.63;5022532;28;20405;-61
2023/02/20 06:15:22;;;;;;;8.85;3.80;;;;;;;13.21;48.64;102233.75;5037358;28;20554;-60
2023/02/20 06:17:47;;;;;;;6.22;3.85;;;;;;;13.20;49.18;102237.44;5056547;28;20484;-61
2023/02/20 06:20:13;;;;;;;7.63;3.38;;;;;;;13.20;49.51;102240.13;5056252;28;20582;-61
2023/02/20 06:22:39;;;;;;;10.20;4.43;;;;;;;13.21;49.47;102233.75;5056021;28;20566;-61
2023/02/20 06:25:05;;;;;;;11.50;4.68;;;;;;;13.22;49.06;102240.00;5038270;28;20107;-60
2023/02/20 06:27:30;;;;;;;4.53;3.60;;;;;;;13.26;48.63;102242.34;5022471;28;20083;-60
2023/02/20 06:29:55;;;;;;;12.25;3.80;;;;;;;13.25;48.88;102254.09;5021642;28;20033;-61
2023/02/20 06:32:21;;;;;;;6.93;3.75;;;;;;;13.27;49.39;102264.72;5038622;28;20021;-60
2023/02/20 06:34:46;;;;;;;10.15;3.83;;;;;;;13.24;49.00;102255.06;5055966;28;20120;-61
2023/02/20 06:37:12;;;;;;;6.30;4.28;;;;;;;13.24;49.64;102265.81;5038215;28;20033;-60
2023/02/20 06:39:38;;;;;;;10.38;4.40;;;;;;;13.29;49.30;102263.66;5038352;28;20103;-60
2023/02/20 06:42:05;;;;;;;10.15;3.92;;;;;;;13.32;49.09;102262.56;5021630;28;20059;-60
2023/02/20 06:44:32;;;;;;;7.72;3.65;;;;;;;13.33;49.04;102270.53;5022027;28;20095;-60
2023/02/20 06:46:57;;;;;;;9.40;3.70;;;;;;;13.35;48.20;102257.81;5038250;28;20041;-61
2023/02/20 06:49:23;;;;;;;9.90;3.90;;;;;;;13.36;49.38;102264.06;5038032;28;20120;-61
2023/02/20 06:51:52;;;;;;;11.77;4.70;;;;;;;13.35;48.11;102276.66;5037839;28;20128;-61
2023/02/20 06:54:20;;;;;;;9.88;3.53;;;;;;;13.34;49.13;102283.00;5021124;28;20052;-60
2023/02/20 06:56:46;;;;;;;12.45;4.00;;;;;;;13.34;49.24;102271.41;5021518;28;20051;-61
2023/02/20 06:59:11;;;;;;;8.35;3.35;;;;;;;13.33;48.90;102262.47;5037875;28;20485;-61
2023/02/20 07:01:39;;;;;;;12.65;5.13;;;;;;;13.36;48.44;102264.06;5055405;28;20157;-60
2023/02/20 07:04:13;;;;;;;9.77;3.80;;;;;;;13.38;49.22;102262.97;5037817;28;20501;-60
2023/02/20 07:06:38;;;;;;;7.43;3.55;;;;;;;13.39;48.25;102263.84;5037457;28;20029;-60
2023/02/20 07:09:03;;;;;;;9.70;3.90;;;;;;;13.41;49.82;102262.75;5037482;28;20025;-60
2023/02/20 07:11:29;;;;;;;10.85;4.07;;;;;;;13.41;48.82;102260.06;5037714;28;20057;-61
2023/02/20 07:13:56;;;;;;;7.10;3.53;;;;;;;13.44;48.69;102272.44;5021164;28;20110;-60
2023/02/20 07:16:21;;;;;;;9.93;4.03;;;;;;;13.48;48.11;102267.69;5037456;28;20032;-60
2023/02/20 07:18:47;;;;;;;11.35;3.97;;;;;;;13.50;48.29;102260.38;5020804;28;20029;-61
2023/02/20 07:21:12;;;;;;;9.23;3.53;;;;;;;13.55;49.30;102271.66;5020531;28;20516;-61
2023/02/20 07:23:37;;;;;;;10.85;3.53;;;;;;;13.59;49.17;102273.16;5037662;28;20039;-60
2023/02/20 07:26:03;;;;;;;8.52;3.25;;;;;;;13.58;49.37;102280.38;5020763;28;20107;-61
2023/02/20 07:28:28;;;;;;;7.53;4.35;;;;;;;13.57;49.03;102270.56;5037263;28;20033;-61
2023/02/20 07:30:54;;;;;;;10.82;4.30;;;;;;;13.65;49.62;102270.00;5037091;28;20067;-61
2023/02/20 07:33:19;;;;;;;11.00;4.43;;;;;;;13.70;48.06;102273.22;5037063;28;20025;-61
2023/02/20 07:35:45;;;;;;;9.05;3.75;;;;;;;13.72;49.39;102273.97;5020897;28;20029;-60
2023/02/20 07:38:11;;;;;;;11.48;4.50;;;;;;;13.75;49.52;102271.91;5036851;28;20043;-61
2023/02/20 07:40:36;;;;;;;11.25;4.82;;;;;;;13.75;48.35;102260.25;5036654;28;20123;-61
2023/02/20 07:43:02;;;;;;;11.20;3.28;;;;;;;13.76;49.33;102273.59;5054671;28;20033;-60
2023/02/20 07:45:27;;;;;;;16.13;5.63;;;;;;;13.77;49.21;102269.94;5003952;28;20025;-61
2023/02/20 07:47:52;;;;;;;7.55;4.95;;;;;;;13.79;48.18;102267.16;5036775;28;20036;-60
2023/02/20 07:50:18;;;;;;;10.52;4.30;;;;;;;13.81;49.16;102281.34;5037024;28;20507;-60
2023/02/20 07:52:44;;;;;;;10.85;3.78;;;;;;;13.80;49.55;102267.03;5036636;28;20036;-61
2023/02/20 07:55:16;;;;;;;8.88;3.72;;;;;;;13.85;48.50;102266.66;5020030;28;20060;-60
2023/02/20 07:57:42;;;;;;;10.38;5.25;;;;;;;13.87;48.89;102270.13;5036603;28;20048;-61
2023/02/20 08:00:08;;;;;;;9.30;4.45;;;;;;;13.88;48.37;102272.69;5036367;28;20037;-61
2023/02/20 08:02:33;;;;;;;9.05;3.95;;;;;;;13.90;49.18;102275.28;5036685;28;20053;-61
2023/02/20 08:04:59;;;;;;;10.88;4.28;;;;;;;13.89;49.04;102274.44;5036311;28;20535;-60
2023/02/20 08:07:24;;;;;;;11.18;4.47;;;;;;;13.88;47.95;102283.47;5031089;28;20042;-60
2023/02/20 08:09:50;;;;;;;9.88;3.88;;;;;;;13.90;48.94;102276.13;5016648;28;20378;-60
2023/02/20 08:12:15;;;;;;;8.32;4.55;;;;;;;13.95;48.09;102278.50;5016499;28;20113;-61
2023/02/20 08:14:40;;;;;;;15.35;3.78;;;;;;;14.00;48.74;102279.00;5017094;28;20497;-61
2023/02/20 08:17:06;;;;;;;9.80;4.05;;;;;;;14.02;48.62;102274.34;4983785;28;20171;-60
2023/02/20 08:19:31;;;;;;;10.00;4.70;;;;;;;14.04;48.13;102277.81;5016249;28;20032;-60
2023/02/20 08:21:56;;;;;;;8.38;4.03;;;;;;;14.05;48.65;102276.81;5016349;28;20171;-60
2023/02/20 08:24:22;;;;;;;8.88;4.03;;;;;;;14.07;48.24;102277.53;5016291;28;20029;-61
2023/02/20 08:26:48;;;;;;;10.57;4.65;;;;;;;14.10;48.63;102271.94;4984361;28;20095;-60
2023/02/20 08:29:14;;;;;;;11.65;4.20;;;;;;;14.14;48.47;102277.94;5033460;28;20047;-61
2023/02/20 08:31:39;;;;;;;10.38;4.53;;;;;;;14.17;48.97;102272.34;5016382;28;20112;-61
2023/02/20 08:34:05;;;;;;;15.57;5.20;;;;;;;14.21;48.96;102280.06;5000017;28;20450;-60
2023/02/20 08:36:30;;;;;;;16.02;6.03;;;;;;;14.23;48.07;102278.13;5000147;28;20029;-61
2023/02/20 08:38:56;;;;;;;8.75;4.22;;;;;;;14.29;48.97;102277.63;5016440;28;20575;-61
2023/02/20 08:41:22;;;;;;;11.40;5.13;;;;;;;14.32;47.88;102277.44;5023490;28;20455;-61
2023/02/20 08:43:47;;;;;;;13.70;3.95;;;;;;;14.34;48.88;102277.31;5035445;28;20124;-61
2023/02/20 08:46:13;;;;;;;13.57;4.05;;;;;;;14.39;48.85;102277.81;5053485;28;20041;-60
2023/02/20 08:48:38;;;;;;;12.00;3.65;;;;;;;14.45;47.70;102277.34;5019032;28;20064;-61
2023/02/20 08:51:05;;;;;;;9.93;4.45;;;;;;;14.49;49.25;102268.91;5035497;28;20029;-61
2023/02/20 08:53:31;;;;;;;10.77;4.50;;;;;;;14.55;47.97;102263.03;5019730;28;20487;-60
2023/02/20 08:55:57;;;;;;;6.93;3.60;;;;;;;14.60;48.99;102264.53;5053540;28;20060;-61
2023/02/20 08:58:23;;;;;;;12.85;4.13;;;;;;;14.65;47.44;102271.28;5035833;28;20516;-61
2023/02/20 09:00:49;;;;;;;12.65;4.80;;;;;;;14.68;48.98;102270.19;5053639;28;20029;-61
2023/02/20 09:03:15;;;;;;;13.63;4.40;;;;;;;14.72;48.96;102268.94;5036604;28;20033;-61
2023/02/20 09:05:41;;;;;;;9.02;4.80;;;;;;;14.78;48.86;102263.06;5020273;28;20035;-61
2023/02/20 09:08:06;;;;;;;10.85;4.32;;;;;;;14.80;48.03;102271.88;5035371;28;20120;-61
2023/02/20 09:10:32;;;;;;;11.43;4.57;;;;;;;14.81;48.00;102270.91;5052920;28;20116;-60
2023/02/20 09:12:57;;;;;;;11.55;4.57;;;;;;;14.84;47.40;102274.25;5035706;28;20029;-61
2023/02/20 09:15:23;;;;;;;8.90;4.35;;;;;;;14.83;48.64;102277.03;5052063;28;20063;-61
2023/02/20 09:17:49;;;;;;;10.75;5.25;;;;;;;14.88;48.63;102285.66;5019100;28;20025;-61
2023/02/20 09:20:16;;;;;;;13.07;5.10;;;;;;;14.91;47.92;102282.69;5035624;28;20564;-61
2023/02/20 09:22:41;;;;;;;9.93;4.50;;;;;;;14.92;47.83;102268.22;5018292;28;20044;-60
2023/02/20 09:25:07;;;;;;;11.90;5.40;;;;;;;14.97;48.17;102284.91;5051752;28;20041;-61
2023/02/20 09:27:33;;;;;;;10.00;3.95;;;;;;;14.99;47.51;102277.56;5051553;28;20032;-61
2023/02/20 09:29:59;;;;;;;9.65;5.45;;;;;;;14.98;48.44;102273.16;5051597;28;20033;-61
2023/02/20 09:32:24;;;;;;;11.93;4.85;;;;;;;15.02;48.42;102271.91;5052022;28;20385;-61
2023/02/20 09:34:50;;;;;;;12.82;4.50;;;;;;;15.02;47.29;102270.06;5052965;28;20037;-61
2023/02/20 09:37:15;;;;;;;12.35;5.25;;;;;;;15.07;48.06;102264.31;5018566;28;20041;-60
2023/02/20 09:39:40;;;;;;;14.52;4.97;;;;;;;15.16;48.44;102259.03;5051620;28;20037;-60
2023/02/20 09:42:21;;;;;;;13.50;4.97;;;;;;;15.26;47.91;102259.16;5052730;28;20040;-61
2023/02/20 09:45:07;;;;;;;10.13;4.85;;;;;;;15.32;48.30;102247.00;5035517;28;20544;-61
2023/02/20 09:47:47;;;;;;;14.48;5.38;;;;;;;15.30;48.04;102244.41;5035244;28;20056;-61
2023/02/20 09:50:29;;;;;;;18.13;5.22;;;;;;;15.35;48.06;102266.50;5035326;28;20048;-61
2023/02/20 09:53:05;;;;;;;9.10;4.80;;;;;;;15.39;47.05;102265.25;5052903;28;20039;-61
2023/02/20 09:55:35;;;;;;;11.95;5.28;;;;;;;15.44;47.10;102257.63;5035164;28;20033;-61
2023/02/20 09:58:02;;;;;;;11.55;5.25;;;;;;;15.44;47.84;102271.13;5018679;28;20055;-61
2023/02/20 10:00:31;;;;;;;13.23;6.00;;;;;;;15.47;46.99;102278.16;5035168;28;20504;-60
2023/02/20 10:03:15;;;;;;;13.48;4.78;;;;;;;15.48;47.24;102269.94;5034738;28;20298;-60
2023/02/20 10:05:42;;;;;;;15.70;5.13;;;;;;;15.50;46.88;102267.97;5054708;28;20030;-60
2023/02/20 10:08:09;;;;;;;9.95;5.03;;;;;;;15.50;47.82;102262.56;5036705;28;20589;-60
2023/02/20 10:10:38;;;;;;;13.55;4.75;;;;;;;15.49;47.26;102263.59;5055547;28;20113;-60
2023/02/20 10:13:27;;;;;;;15.30;5.88;;;;;;;15.52;47.19;102263.31;5021415;28;20037;-61
2023/02/20 10:16:20;;;;;;;8.18;4.30;;;;;;;15.54;46.97;102258.66;5051088;28;20025;-64
2023/02/20 10:19:04;;;;;;;9.50;5.00;;;;;;;15.55;47.54;102259.53;5052374;28;20029;-63
2023/02/20 10:21:39;;;;;;;8.95;3.85;;;;;;;15.54;48.33;102258.66;5034554;28;20037;-63
2023/02/20 10:24:21;;;;;;;18.40;5.97;;;;;;;15.58;47.48;102252.00;5034429;28;20552;-64
2023/02/20 10:26:52;;;;;;;10.68;5.28;;;;;;;15.60;48.17;102260.84;5035175;28;20029;-63
2023/02/20 10:29:22;;;;;;;11.00;5.18;;;;;;;15.57;47.46;102255.69;5018403;28;20054;-64
2023/02/20 10:32:04;;;;;;;11.15;4.32;;;;;;;15.53;46.71;102259.63;5051019;28;20029;-64
2023/02/20 10:34:33;;;;;;;14.02;5.30;;;;;;;15.52;48.19;102257.06;5051133;28;20112;-63
2023/02/20 10:37:20;;;;;;;10.50;4.70;;;;;;;15.53;48.31;102258.75;5052478;28;20116;-63
2023/02/20 10:39:58;;;;;;;12.00;5.13;;;;;;;15.55;46.65;102249.53;5034442;28;20033;-63
2023/02/20 10:43:07;;;;;;;11.43;6.55;;;;;;;15.54;48.10;102258.66;5034562;28;20466;-63
2023/02/20 10:45:49;;;;;;;14.82;6.10;;;;;;;15.59;47.55;102256.44;5013497;28;20387;-63
2023/02/20 10:48:15;;;;;;;11.77;5.47;;;;;;;15.61;48.23;102259.84;5034627;28;20175;-63
2023/02/20 10:50:42;;;;;;;9.63;5.25;;;;;;;15.65;47.77;102255.91;4998806;28;20128;-63
2023/02/20 10:53:41;;;;;;;17.13;5.72;;;;;;;15.68;47.07;102261.06;5017901;28;20037;-63
2023/02/20 10:56:14;;;;;;;12.32;6.05;;;;;;;15.70;46.91;102233.91;5001654;28;20040;-62
2023/02/20 10:58:54;;;;;;;13.00;5.43;;;;;;;15.77;48.00;102220.75;5001781;28;20152;-63
2023/02/20 11:01:22;;;;;;;11.00;5.63;;;;;;;15.81;46.86;102228.47;5017912;28;20038;-63
2023/02/20 11:03:56;;;;;;;11.23;5.18;;;;;;;15.85;46.71;102218.28;5001874;28;20036;-63
2023/02/20 11:06:26;;;;;;;12.30;5.93;;;;;;;15.84;47.53;102205.75;5017889;28;20040;-66
2023/02/20 11:08:51;;;;;;;12.60;5.93;;;;;;;15.89;46.76;102203.50;5001216;28;20021;-63
2023/02/20 11:11:24;;;;;;;20.80;5.80;;;;;;;15.93;46.99;102213.06;5001899;28;20383;-63
2023/02/20 11:13:49;;;;;;;;;;;;;;;15.94;47.35;102222.91;5018334;28;20033;-61
2023/02/20 11:16:40;;;;;;;10.70;5.40;;;;;;;15.94;47.54;102223.75;5036009;28;19920;-62
2023/02/20 11:19:09;;;;;;;13.32;5.97;;;;;;;15.92;47.45;102224.84;5017723;28;20029;-64
2023/02/20 11:21:41;;;;;;;10.32;6.05;;;;;;;15.89;47.63;102230.53;5017621;28;20041;-64
2023/02/20 11:24:26;;;;;;;13.35;5.75;;;;;;;15.83;47.29;102222.97;5001075;28;20064;-63
2023/02/20 11:26:56;;;;;;;15.52;5.25;;;;;;;15.83;46.91;102217.56;5001181;28;20025;-63
2023/02/20 11:29:22;;;;;;;12.70;5.50;;;;;;;15.83;47.64;102231.06;5035491;28;20025;-64
2023/02/20 11:31:48;;;;;;;14.40;5.80;;;;;;;15.87;47.02;102229.81;5000978;28;20026;-65
2023/02/20 11:34:20;;;;;;;12.82;5.80;;;;;;;15.91;46.91;102215.91;5017415;28;20037;-64
2023/02/20 11:37:03;;;;;;;14.25;5.63;;;;;;;15.93;47.97;102232.00;5000806;28;20033;-64
2023/02/20 11:39:29;;;;;;;13.65;5.63;;;;;;;15.94;46.54;102226.44;5017156;28;20026;-64
2023/02/20 11:42:08;;;;;;;15.70;5.25;;;;;;;15.95;47.52;102224.59;5017079;28;20033;-64
2023/02/20 11:44:34;;;;;;;11.85;5.80;;;;;;;15.95;46.42;102230.00;5000988;28;20128;-64
2023/02/20 11:47:26;;;;;;;9.90;5.32;;;;;;;15.92;47.20;102230.25;5017028;28;20122;-64
2023/02/20 11:50:12;;;;;;;11.20;5.68;;;;;;;15.87;48.10;102229.81;5001018;28;20532;-64
2023/02/20 11:52:38;;;;;;;11.38;5.00;;;;;;;15.87;47.10;102221.69;5000699;28;20033;-64